sensor_id;sensor_type;location;lat;lon;timestamp;P1;durP1;ratioP1;P2;durP2;ratioP2
39426;SDS011;25938;48.470;1.486;2023-04-29T00:00:06;1.83;;;1.70;;
39426;SDS011;25938;48.470;1.486;2023-04-29T00:02:34;1.80;;;1.70;;
39426;SDS011;25938;48.470;1.486;2023-04-29T00:05:00;2.50;;;1.90;;
39426;SDS011;25938;48.470;1.486;2023-04-29T00:07:29;2.10;;;1.90;;
39426;SDS011;25938;48.470;1.486;2023-04-29T00:09:56;2.30;;;2.10;;
39426;SDS011;25938;48.470;1.486;2023-04-29T00:12:22;1.52;;;1.42;;
39426;SDS011;25938;48.470;1.486;2023-04-29T00:14:48;2.20;;;1.42;;
39426;SDS011;25938;48.470;1.486;2023-04-29T00:17:14;2.85;;;1.98;;
39426;SDS011;25938;48.470;1.486;2023-04-29T00:19:41;1.70;;;1.60;;
39426;SDS011;25938;48.470;1.486;2023-04-29T00:22:07;2.05;;;1.92;;
39426;SDS011;25938;48.470;1.486;2023-04-29T00:24:33;1.60;;;1.50;;
39426;SDS011;25938;48.470;1.486;2023-04-29T00:27:00;1.88;;;1.77;;
39426;SDS011;25938;48.470;1.486;2023-04-29T00:29:30;1.80;;;1.70;;
39426;SDS011;25938;48.470;1.486;2023-04-29T00:31:56;2.20;;;1.88;;
39426;SDS011;25938;48.470;1.486;2023-04-29T00:34:22;2.70;;;1.75;;
39426;SDS011;25938;48.470;1.486;2023-04-29T00:36:48;1.50;;;1.40;;
39426;SDS011;25938;48.470;1.486;2023-04-29T00:39:14;1.60;;;1.42;;
39426;SDS011;25938;48.470;1.486;2023-04-29T00:41:40;2.67;;;1.80;;
39426;SDS011;25938;48.470;1.486;2023-04-29T00:44:06;2.53;;;2.00;;
39426;SDS011;25938;48.470;1.486;2023-04-29T00:46:32;2.00;;;1.90;;
39426;SDS011;25938;48.470;1.486;2023-04-29T00:48:59;2.67;;;1.77;;
39426;SDS011;25938;48.470;1.486;2023-04-29T00:51:25;1.58;;;1.38;;
39426;SDS011;25938;48.470;1.486;2023-04-29T00:53:52;1.25;;;1.15;;
39426;SDS011;25938;48.470;1.486;2023-04-29T00:56:18;1.23;;;1.15;;
39426;SDS011;25938;48.470;1.486;2023-04-29T00:58:45;1.38;;;1.27;;
39426;SDS011;25938;48.470;1.486;2023-04-29T01:01:14;1.92;;;1.55;;
39426;SDS011;25938;48.470;1.486;2023-04-29T01:03:40;2.72;;;1.60;;
39426;SDS011;25938;48.470;1.486;2023-04-29T01:11:26;2.78;;;2.50;;
39426;SDS011;25938;48.470;1.486;2023-04-29T01:13:58;3.03;;;2.30;;
39426;SDS011;25938;48.470;1.486;2023-04-29T01:18:54;3.22;;;2.40;;
39426;SDS011;25938;48.470;1.486;2023-04-29T01:21:20;2.10;;;1.90;;
39426;SDS011;25938;48.470;1.486;2023-04-29T01:23:46;3.40;;;1.90;;
39426;SDS011;25938;48.470;1.486;2023-04-29T01:26:19;2.70;;;2.25;;
39426;SDS011;25938;48.470;1.486;2023-04-29T01:29:13;2.17;;;1.85;;
39426;SDS011;25938;48.470;1.486;2023-04-29T01:31:43;3.22;;;2.92;;
39426;SDS011;25938;48.470;1.486;2023-04-29T01:34:13;3.50;;;3.20;;
39426;SDS011;25938;48.470;1.486;2023-04-29T01:42:09;3.28;;;2.75;;
39426;SDS011;25938;48.470;1.486;2023-04-29T01:44:39;3.63;;;3.25;;
39426;SDS011;25938;48.470;1.486;2023-04-29T01:47:06;4.38;;;3.67;;
39426;SDS011;25938;48.470;1.486;2023-04-29T01:49:37;4.93;;;3.60;;
39426;SDS011;25938;48.470;1.486;2023-04-29T01:52:03;4.28;;;3.88;;
39426;SDS011;25938;48.470;1.486;2023-04-29T01:54:29;4.35;;;3.60;;
39426;SDS011;25938;48.470;1.486;2023-04-29T01:56:56;5.70;;;4.78;;
39426;SDS011;25938;48.470;1.486;2023-04-29T01:59:22;6.32;;;4.20;;
39426;SDS011;25938;48.470;1.486;2023-04-29T02:01:48;4.18;;;3.50;;
39426;SDS011;25938;48.470;1.486;2023-04-29T02:04:15;4.45;;;4.00;;
39426;SDS011;25938;48.470;1.486;2023-04-29T02:06:41;6.18;;;4.55;;
39426;SDS011;25938;48.470;1.486;2023-04-29T02:09:08;5.57;;;4.65;;
39426;SDS011;25938;48.470;1.486;2023-04-29T02:11:34;5.93;;;5.22;;
39426;SDS011;25938;48.470;1.486;2023-04-29T02:14:00;5.97;;;4.90;;
39426;SDS011;25938;48.470;1.486;2023-04-29T02:16:26;7.72;;;5.72;;
39426;SDS011;25938;48.470;1.486;2023-04-29T02:18:52;7.10;;;6.03;;
39426;SDS011;25938;48.470;1.486;2023-04-29T02:21:18;9.10;;;6.70;;
39426;SDS011;25938;48.470;1.486;2023-04-29T02:23:44;6.63;;;5.35;;
39426;SDS011;25938;48.470;1.486;2023-04-29T02:26:10;8.55;;;5.95;;
39426;SDS011;25938;48.470;1.486;2023-04-29T02:28:37;6.93;;;5.97;;
39426;SDS011;25938;48.470;1.486;2023-04-29T02:31:03;8.00;;;5.95;;
39426;SDS011;25938;48.470;1.486;2023-04-29T02:33:30;9.98;;;6.70;;
39426;SDS011;25938;48.470;1.486;2023-04-29T02:35:56;10.88;;;7.20;;
39426;SDS011;25938;48.470;1.486;2023-04-29T02:38:23;9.32;;;6.90;;
39426;SDS011;25938;48.470;1.486;2023-04-29T02:40:49;9.20;;;6.75;;
39426;SDS011;25938;48.470;1.486;2023-04-29T02:43:15;8.00;;;6.50;;
39426;SDS011;25938;48.470;1.486;2023-04-29T02:45:41;10.02;;;6.65;;
39426;SDS011;25938;48.470;1.486;2023-04-29T02:48:08;8.60;;;6.35;;
39426;SDS011;25938;48.470;1.486;2023-04-29T02:50:34;9.93;;;7.00;;
39426;SDS011;25938;48.470;1.486;2023-04-29T02:53:00;9.98;;;7.22;;
39426;SDS011;25938;48.470;1.486;2023-04-29T02:55:26;10.23;;;7.30;;
39426;SDS011;25938;48.470;1.486;2023-04-29T02:57:52;12.40;;;8.40;;
39426;SDS011;25938;48.470;1.486;2023-04-29T03:00:18;12.63;;;8.30;;
39426;SDS011;25938;48.470;1.486;2023-04-29T03:02:45;11.55;;;8.32;;
39426;SDS011;25938;48.470;1.486;2023-04-29T03:05:11;9.40;;;7.50;;
39426;SDS011;25938;48.470;1.486;2023-04-29T03:07:37;7.88;;;6.25;;
39426;SDS011;25938;48.470;1.486;2023-04-29T03:10:03;8.55;;;6.72;;
39426;SDS011;25938;48.470;1.486;2023-04-29T03:12:29;8.63;;;6.70;;
39426;SDS011;25938;48.470;1.486;2023-04-29T03:14:55;9.05;;;6.03;;
39426;SDS011;25938;48.470;1.486;2023-04-29T03:17:21;7.70;;;5.95;;
39426;SDS011;25938;48.470;1.486;2023-04-29T03:19:47;7.97;;;6.05;;
39426;SDS011;25938;48.470;1.486;2023-04-29T03:22:13;8.50;;;6.22;;
39426;SDS011;25938;48.470;1.486;2023-04-29T03:24:39;7.45;;;6.10;;
39426;SDS011;25938;48.470;1.486;2023-04-29T03:27:05;12.20;;;6.95;;
39426;SDS011;25938;48.470;1.486;2023-04-29T03:29:31;7.10;;;6.22;;
39426;SDS011;25938;48.470;1.486;2023-04-29T03:31:57;7.43;;;5.95;;
39426;SDS011;25938;48.470;1.486;2023-04-29T03:34:23;7.35;;;5.65;;
39426;SDS011;25938;48.470;1.486;2023-04-29T03:36:49;8.38;;;5.82;;
39426;SDS011;25938;48.470;1.486;2023-04-29T03:39:16;6.00;;;5.15;;
39426;SDS011;25938;48.470;1.486;2023-04-29T03:41:42;7.78;;;6.35;;
39426;SDS011;25938;48.470;1.486;2023-04-29T03:44:08;6.90;;;6.13;;
39426;SDS011;25938;48.470;1.486;2023-04-29T03:46:34;9.23;;;6.13;;
39426;SDS011;25938;48.470;1.486;2023-04-29T03:49:00;8.57;;;5.90;;
39426;SDS011;25938;48.470;1.486;2023-04-29T03:51:26;7.93;;;6.45;;
39426;SDS011;25938;48.470;1.486;2023-04-29T03:53:52;7.93;;;6.68;;
39426;SDS011;25938;48.470;1.486;2023-04-29T03:56:20;8.45;;;7.22;;
39426;SDS011;25938;48.470;1.486;2023-04-29T03:58:47;9.00;;;6.38;;
39426;SDS011;25938;48.470;1.486;2023-04-29T04:01:13;7.90;;;6.35;;
39426;SDS011;25938;48.470;1.486;2023-04-29T04:03:39;9.40;;;6.95;;
39426;SDS011;25938;48.470;1.486;2023-04-29T04:06:07;10.43;;;7.45;;
39426;SDS011;25938;48.470;1.486;2023-04-29T04:08:33;8.75;;;6.75;;
39426;SDS011;25938;48.470;1.486;2023-04-29T04:10:59;10.70;;;6.80;;
39426;SDS011;25938;48.470;1.486;2023-04-29T04:13:30;7.88;;;5.93;;
39426;SDS011;25938;48.470;1.486;2023-04-29T04:15:56;9.18;;;6.50;;
39426;SDS011;25938;48.470;1.486;2023-04-29T04:18:22;10.10;;;7.43;;
39426;SDS011;25938;48.470;1.486;2023-04-29T04:20:48;9.65;;;7.00;;
39426;SDS011;25938;48.470;1.486;2023-04-29T04:23:14;9.95;;;7.95;;
39426;SDS011;25938;48.470;1.486;2023-04-29T04:25:47;11.68;;;7.10;;
39426;SDS011;25938;48.470;1.486;2023-04-29T04:28:13;8.82;;;6.63;;
39426;SDS011;25938;48.470;1.486;2023-04-29T04:30:39;8.55;;;6.20;;
39426;SDS011;25938;48.470;1.486;2023-04-29T04:33:06;10.05;;;6.90;;
39426;SDS011;25938;48.470;1.486;2023-04-29T04:35:34;8.30;;;6.70;;
39426;SDS011;25938;48.470;1.486;2023-04-29T04:38:00;10.32;;;6.75;;
39426;SDS011;25938;48.470;1.486;2023-04-29T04:40:26;9.90;;;6.78;;
39426;SDS011;25938;48.470;1.486;2023-04-29T04:42:53;10.55;;;6.97;;
39426;SDS011;25938;48.470;1.486;2023-04-29T04:45:19;9.93;;;6.63;;
39426;SDS011;25938;48.470;1.486;2023-04-29T04:47:46;10.00;;;7.15;;
39426;SDS011;25938;48.470;1.486;2023-04-29T04:50:12;10.55;;;7.18;;
39426;SDS011;25938;48.470;1.486;2023-04-29T04:52:38;10.55;;;7.43;;
39426;SDS011;25938;48.470;1.486;2023-04-29T04:55:04;8.57;;;7.05;;
39426;SDS011;25938;48.470;1.486;2023-04-29T04:57:30;10.60;;;7.13;;
39426;SDS011;25938;48.470;1.486;2023-04-29T04:59:56;12.23;;;8.43;;
39426;SDS011;25938;48.470;1.486;2023-04-29T05:02:22;11.10;;;7.32;;
39426;SDS011;25938;48.470;1.486;2023-04-29T05:04:48;11.02;;;7.35;;
39426;SDS011;25938;48.470;1.486;2023-04-29T05:07:14;10.95;;;7.10;;
39426;SDS011;25938;48.470;1.486;2023-04-29T05:09:40;10.43;;;7.78;;
39426;SDS011;25938;48.470;1.486;2023-04-29T05:12:06;12.00;;;8.05;;
39426;SDS011;25938;48.470;1.486;2023-04-29T05:14:32;10.02;;;6.70;;
39426;SDS011;25938;48.470;1.486;2023-04-29T05:16:58;12.15;;;6.97;;
39426;SDS011;25938;48.470;1.486;2023-04-29T05:19:24;10.70;;;7.20;;
39426;SDS011;25938;48.470;1.486;2023-04-29T05:21:51;10.75;;;7.43;;
39426;SDS011;25938;48.470;1.486;2023-04-29T05:24:17;13.13;;;7.50;;
39426;SDS011;25938;48.470;1.486;2023-04-29T05:26:43;12.40;;;8.40;;
39426;SDS011;25938;48.470;1.486;2023-04-29T05:29:09;12.68;;;7.68;;
39426;SDS011;25938;48.470;1.486;2023-04-29T05:31:36;11.68;;;7.32;;
39426;SDS011;25938;48.470;1.486;2023-04-29T05:34:02;11.60;;;7.30;;
39426;SDS011;25938;48.470;1.486;2023-04-29T05:36:28;10.55;;;6.93;;
39426;SDS011;25938;48.470;1.486;2023-04-29T05:38:54;14.77;;;8.43;;
39426;SDS011;25938;48.470;1.486;2023-04-29T05:41:20;13.73;;;8.65;;
39426;SDS011;25938;48.470;1.486;2023-04-29T05:43:49;12.80;;;7.68;;
39426;SDS011;25938;48.470;1.486;2023-04-29T05:46:15;12.93;;;9.30;;
39426;SDS011;25938;48.470;1.486;2023-04-29T05:48:41;16.55;;;8.73;;
39426;SDS011;25938;48.470;1.486;2023-04-29T05:51:07;12.63;;;8.32;;
39426;SDS011;25938;48.470;1.486;2023-04-29T05:53:33;11.48;;;7.78;;
39426;SDS011;25938;48.470;1.486;2023-04-29T05:56:00;11.73;;;7.88;;
39426;SDS011;25938;48.470;1.486;2023-04-29T05:58:30;14.35;;;8.32;;
39426;SDS011;25938;48.470;1.486;2023-04-29T06:00:56;12.57;;;8.32;;
39426;SDS011;25938;48.470;1.486;2023-04-29T06:03:22;11.52;;;7.72;;
39426;SDS011;25938;48.470;1.486;2023-04-29T06:05:48;14.65;;;8.65;;
39426;SDS011;25938;48.470;1.486;2023-04-29T06:08:14;12.95;;;8.63;;
39426;SDS011;25938;48.470;1.486;2023-04-29T06:10:40;14.20;;;8.57;;
39426;SDS011;25938;48.470;1.486;2023-04-29T06:13:06;16.42;;;9.55;;
39426;SDS011;25938;48.470;1.486;2023-04-29T06:15:32;14.90;;;9.00;;
39426;SDS011;25938;48.470;1.486;2023-04-29T06:17:58;13.52;;;8.65;;
39426;SDS011;25938;48.470;1.486;2023-04-29T06:20:24;12.93;;;8.15;;
39426;SDS011;25938;48.470;1.486;2023-04-29T06:22:51;14.80;;;8.93;;
39426;SDS011;25938;48.470;1.486;2023-04-29T06:25:17;13.18;;;8.07;;
39426;SDS011;25938;48.470;1.486;2023-04-29T06:27:43;14.00;;;9.10;;
39426;SDS011;25938;48.470;1.486;2023-04-29T06:30:09;14.18;;;9.40;;
39426;SDS011;25938;48.470;1.486;2023-04-29T06:32:35;14.02;;;9.43;;
39426;SDS011;25938;48.470;1.486;2023-04-29T06:35:01;15.02;;;9.35;;
39426;SDS011;25938;48.470;1.486;2023-04-29T06:37:28;14.75;;;9.43;;
39426;SDS011;25938;48.470;1.486;2023-04-29T06:39:54;14.10;;;9.25;;
39426;SDS011;25938;48.470;1.486;2023-04-29T06:42:20;15.20;;;10.45;;
39426;SDS011;25938;48.470;1.486;2023-04-29T06:44:46;16.50;;;10.68;;
39426;SDS011;25938;48.470;1.486;2023-04-29T06:47:12;16.42;;;9.45;;
39426;SDS011;25938;48.470;1.486;2023-04-29T06:49:38;16.45;;;11.18;;
39426;SDS011;25938;48.470;1.486;2023-04-29T06:52:04;16.38;;;9.75;;
39426;SDS011;25938;48.470;1.486;2023-04-29T06:54:31;17.80;;;10.88;;
39426;SDS011;25938;48.470;1.486;2023-04-29T06:56:57;17.42;;;11.57;;
39426;SDS011;25938;48.470;1.486;2023-04-29T06:59:23;22.42;;;12.35;;
39426;SDS011;25938;48.470;1.486;2023-04-29T07:01:49;21.17;;;12.32;;
39426;SDS011;25938;48.470;1.486;2023-04-29T07:04:16;20.73;;;13.13;;
39426;SDS011;25938;48.470;1.486;2023-04-29T07:06:42;20.38;;;12.50;;
39426;SDS011;25938;48.470;1.486;2023-04-29T07:09:11;23.77;;;12.55;;
39426;SDS011;25938;48.470;1.486;2023-04-29T07:11:38;20.27;;;12.90;;
39426;SDS011;25938;48.470;1.486;2023-04-29T07:14:04;21.10;;;13.38;;
39426;SDS011;25938;48.470;1.486;2023-04-29T07:16:31;19.02;;;12.27;;
39426;SDS011;25938;48.470;1.486;2023-04-29T07:18:57;21.08;;;13.02;;
39426;SDS011;25938;48.470;1.486;2023-04-29T07:21:23;19.52;;;11.60;;
39426;SDS011;25938;48.470;1.486;2023-04-29T07:23:49;23.77;;;13.10;;
39426;SDS011;25938;48.470;1.486;2023-04-29T07:26:16;20.95;;;13.00;;
39426;SDS011;25938;48.470;1.486;2023-04-29T07:28:42;20.02;;;11.93;;
39426;SDS011;25938;48.470;1.486;2023-04-29T07:31:08;20.10;;;11.95;;
39426;SDS011;25938;48.470;1.486;2023-04-29T07:33:36;21.17;;;12.13;;
39426;SDS011;25938;48.470;1.486;2023-04-29T07:36:02;22.05;;;12.18;;
39426;SDS011;25938;48.470;1.486;2023-04-29T07:38:28;20.10;;;12.55;;
39426;SDS011;25938;48.470;1.486;2023-04-29T07:40:54;21.63;;;12.63;;
39426;SDS011;25938;48.470;1.486;2023-04-29T07:43:20;20.63;;;12.07;;
39426;SDS011;25938;48.470;1.486;2023-04-29T07:45:47;18.20;;;12.43;;
39426;SDS011;25938;48.470;1.486;2023-04-29T07:48:13;18.73;;;11.13;;
39426;SDS011;25938;48.470;1.486;2023-04-29T07:50:39;19.13;;;10.98;;
39426;SDS011;25938;48.470;1.486;2023-04-29T07:53:06;14.73;;;9.43;;
39426;SDS011;25938;48.470;1.486;2023-04-29T07:55:32;17.25;;;10.30;;
39426;SDS011;25938;48.470;1.486;2023-04-29T07:57:58;16.38;;;10.80;;
39426;SDS011;25938;48.470;1.486;2023-04-29T08:00:24;16.73;;;10.02;;
39426;SDS011;25938;48.470;1.486;2023-04-29T08:02:52;15.80;;;9.05;;
39426;SDS011;25938;48.470;1.486;2023-04-29T08:05:19;15.88;;;9.35;;
39426;SDS011;25938;48.470;1.486;2023-04-29T08:07:45;17.00;;;9.52;;
39426;SDS011;25938;48.470;1.486;2023-04-29T08:10:12;16.98;;;9.45;;
39426;SDS011;25938;48.470;1.486;2023-04-29T08:12:38;15.82;;;9.13;;
39426;SDS011;25938;48.470;1.486;2023-04-29T08:15:05;19.55;;;10.98;;
39426;SDS011;25938;48.470;1.486;2023-04-29T08:17:31;16.13;;;9.13;;
39426;SDS011;25938;48.470;1.486;2023-04-29T08:19:57;13.57;;;7.68;;
39426;SDS011;25938;48.470;1.486;2023-04-29T08:22:23;14.70;;;8.60;;
39426;SDS011;25938;48.470;1.486;2023-04-29T08:24:49;13.27;;;8.57;;
39426;SDS011;25938;48.470;1.486;2023-04-29T08:27:16;13.70;;;8.43;;
39426;SDS011;25938;48.470;1.486;2023-04-29T08:29:42;16.77;;;10.02;;
39426;SDS011;25938;48.470;1.486;2023-04-29T08:32:08;15.35;;;8.88;;
39426;SDS011;25938;48.470;1.486;2023-04-29T08:34:34;15.02;;;9.48;;
39426;SDS011;25938;48.470;1.486;2023-04-29T08:37:01;17.95;;;9.57;;
39426;SDS011;25938;48.470;1.486;2023-04-29T08:39:28;17.08;;;9.93;;
39426;SDS011;25938;48.470;1.486;2023-04-29T08:41:57;17.48;;;9.68;;
39426;SDS011;25938;48.470;1.486;2023-04-29T08:44:27;12.77;;;8.20;;
39426;SDS011;25938;48.470;1.486;2023-04-29T08:46:54;14.65;;;8.23;;
39426;SDS011;25938;48.470;1.486;2023-04-29T08:49:20;9.98;;;7.00;;
39426;SDS011;25938;48.470;1.486;2023-04-29T08:51:49;14.35;;;9.00;;
39426;SDS011;25938;48.470;1.486;2023-04-29T08:54:16;15.60;;;8.20;;
39426;SDS011;25938;48.470;1.486;2023-04-29T08:56:43;12.50;;;7.65;;
39426;SDS011;25938;48.470;1.486;2023-04-29T08:59:10;10.70;;;7.15;;
39426;SDS011;25938;48.470;1.486;2023-04-29T09:01:37;8.85;;;5.68;;
39426;SDS011;25938;48.470;1.486;2023-04-29T09:06:31;10.68;;;7.05;;
39426;SDS011;25938;48.470;1.486;2023-04-29T09:08:58;10.88;;;5.85;;
39426;SDS011;25938;48.470;1.486;2023-04-29T09:11:24;8.52;;;5.97;;
39426;SDS011;25938;48.470;1.486;2023-04-29T09:13:52;10.48;;;5.95;;
39426;SDS011;25938;48.470;1.486;2023-04-29T09:16:23;8.68;;;5.43;;
39426;SDS011;25938;48.470;1.486;2023-04-29T09:18:50;7.60;;;5.57;;
39426;SDS011;25938;48.470;1.486;2023-04-29T09:23:55;8.02;;;5.88;;
39426;SDS011;25938;48.470;1.486;2023-04-29T09:29:07;7.65;;;5.57;;
39426;SDS011;25938;48.470;1.486;2023-04-29T09:31:34;9.90;;;6.18;;
39426;SDS011;25938;48.470;1.486;2023-04-29T09:34:00;8.13;;;5.60;;
39426;SDS011;25938;48.470;1.486;2023-04-29T09:36:36;8.35;;;5.50;;
39426;SDS011;25938;48.470;1.486;2023-04-29T09:39:03;8.98;;;6.07;;
39426;SDS011;25938;48.470;1.486;2023-04-29T09:41:30;7.70;;;5.45;;
39426;SDS011;25938;48.470;1.486;2023-04-29T09:44:03;8.45;;;5.85;;
39426;SDS011;25938;48.470;1.486;2023-04-29T09:46:32;7.68;;;4.65;;
39426;SDS011;25938;48.470;1.486;2023-04-29T09:48:59;6.47;;;4.43;;
39426;SDS011;25938;48.470;1.486;2023-04-29T09:51:25;5.97;;;4.40;;
39426;SDS011;25938;48.470;1.486;2023-04-29T09:53:51;6.13;;;4.22;;
39426;SDS011;25938;48.470;1.486;2023-04-29T09:56:17;5.25;;;4.75;;
39426;SDS011;25938;48.470;1.486;2023-04-29T09:58:43;7.10;;;4.35;;
39426;SDS011;25938;48.470;1.486;2023-04-29T10:01:10;7.38;;;4.18;;
39426;SDS011;25938;48.470;1.486;2023-04-29T10:03:38;5.13;;;4.18;;
39426;SDS011;25938;48.470;1.486;2023-04-29T10:06:05;6.70;;;4.35;;
39426;SDS011;25938;48.470;1.486;2023-04-29T10:08:31;6.35;;;4.93;;
39426;SDS011;25938;48.470;1.486;2023-04-29T10:10:58;4.72;;;4.22;;
39426;SDS011;25938;48.470;1.486;2023-04-29T10:13:25;7.35;;;4.38;;
39426;SDS011;25938;48.470;1.486;2023-04-29T10:15:57;4.97;;;3.97;;
39426;SDS011;25938;48.470;1.486;2023-04-29T10:18:25;7.03;;;5.43;;
39426;SDS011;25938;48.470;1.486;2023-04-29T10:20:53;6.65;;;4.55;;
39426;SDS011;25938;48.470;1.486;2023-04-29T10:23:22;4.68;;;3.33;;
39426;SDS011;25938;48.470;1.486;2023-04-29T10:25:49;3.78;;;3.40;;
39426;SDS011;25938;48.470;1.486;2023-04-29T10:28:17;4.72;;;4.28;;
39426;SDS011;25938;48.470;1.486;2023-04-29T10:30:43;5.68;;;4.38;;
39426;SDS011;25938;48.470;1.486;2023-04-29T10:33:10;5.53;;;4.00;;
39426;SDS011;25938;48.470;1.486;2023-04-29T10:35:36;5.63;;;3.78;;
39426;SDS011;25938;48.470;1.486;2023-04-29T10:38:05;6.50;;;4.38;;
39426;SDS011;25938;48.470;1.486;2023-04-29T10:40:41;5.97;;;4.00;;
39426;SDS011;25938;48.470;1.486;2023-04-29T10:43:10;5.57;;;4.63;;
39426;SDS011;25938;48.470;1.486;2023-04-29T10:45:36;5.22;;;4.45;;
39426;SDS011;25938;48.470;1.486;2023-04-29T10:53:19;5.18;;;4.00;;
39426;SDS011;25938;48.470;1.486;2023-04-29T10:55:46;6.00;;;4.15;;
39426;SDS011;25938;48.470;1.486;2023-04-29T11:00:57;5.78;;;3.58;;
39426;SDS011;25938;48.470;1.486;2023-04-29T11:06:09;6.07;;;5.10;;
39426;SDS011;25938;48.470;1.486;2023-04-29T11:08:38;7.25;;;4.40;;
39426;SDS011;25938;48.470;1.486;2023-04-29T11:11:05;5.65;;;4.97;;
39426;SDS011;25938;48.470;1.486;2023-04-29T11:13:31;8.32;;;5.35;;
39426;SDS011;25938;48.470;1.486;2023-04-29T11:16:05;5.82;;;4.53;;
39426;SDS011;25938;48.470;1.486;2023-04-29T11:18:32;5.47;;;4.53;;
39426;SDS011;25938;48.470;1.486;2023-04-29T11:23:33;6.45;;;4.85;;
39426;SDS011;25938;48.470;1.486;2023-04-29T11:26:00;5.90;;;4.30;;
39426;SDS011;25938;48.470;1.486;2023-04-29T11:28:26;5.30;;;4.50;;
39426;SDS011;25938;48.470;1.486;2023-04-29T11:30:52;5.38;;;4.13;;
39426;SDS011;25938;48.470;1.486;2023-04-29T11:33:19;6.55;;;3.78;;
39426;SDS011;25938;48.470;1.486;2023-04-29T11:35:45;5.03;;;4.10;;
39426;SDS011;25938;48.470;1.486;2023-04-29T11:38:11;5.53;;;4.20;;
39426;SDS011;25938;48.470;1.486;2023-04-29T11:40:50;5.05;;;3.78;;
39426;SDS011;25938;48.470;1.486;2023-04-29T11:43:16;5.55;;;4.28;;
39426;SDS011;25938;48.470;1.486;2023-04-29T11:45:43;5.20;;;4.05;;
39426;SDS011;25938;48.470;1.486;2023-04-29T11:48:16;5.50;;;4.07;;
39426;SDS011;25938;48.470;1.486;2023-04-29T11:50:42;5.93;;;4.00;;
39426;SDS011;25938;48.470;1.486;2023-04-29T11:53:08;7.00;;;5.30;;
39426;SDS011;25938;48.470;1.486;2023-04-29T11:55:34;5.68;;;4.53;;
39426;SDS011;25938;48.470;1.486;2023-04-29T11:58:03;4.25;;;3.80;;
39426;SDS011;25938;48.470;1.486;2023-04-29T12:00:30;6.93;;;3.83;;
39426;SDS011;25938;48.470;1.486;2023-04-29T12:02:56;4.18;;;3.53;;
39426;SDS011;25938;48.470;1.486;2023-04-29T12:05:26;5.82;;;3.47;;
39426;SDS011;25938;48.470;1.486;2023-04-29T12:07:53;4.25;;;3.72;;
39426;SDS011;25938;48.470;1.486;2023-04-29T12:10:19;3.78;;;3.47;;
39426;SDS011;25938;48.470;1.486;2023-04-29T12:12:45;5.22;;;4.05;;
39426;SDS011;25938;48.470;1.486;2023-04-29T12:15:12;4.78;;;4.28;;
39426;SDS011;25938;48.470;1.486;2023-04-29T12:17:39;4.63;;;3.65;;
39426;SDS011;25938;48.470;1.486;2023-04-29T12:20:05;5.50;;;3.85;;
39426;SDS011;25938;48.470;1.486;2023-04-29T12:22:34;5.13;;;4.63;;
39426;SDS011;25938;48.470;1.486;2023-04-29T12:25:03;3.65;;;3.35;;
39426;SDS011;25938;48.470;1.486;2023-04-29T12:27:30;4.80;;;3.65;;
39426;SDS011;25938;48.470;1.486;2023-04-29T12:29:56;3.35;;;2.92;;
39426;SDS011;25938;48.470;1.486;2023-04-29T12:32:23;37.08;;;34.25;;
39426;SDS011;25938;48.470;1.486;2023-04-29T12:34:50;5.72;;;4.78;;
39426;SDS011;25938;48.470;1.486;2023-04-29T12:37:20;4.10;;;3.60;;
39426;SDS011;25938;48.470;1.486;2023-04-29T12:39:48;5.63;;;3.58;;
39426;SDS011;25938;48.470;1.486;2023-04-29T12:42:14;3.53;;;3.22;;
39426;SDS011;25938;48.470;1.486;2023-04-29T12:44:43;4.05;;;3.45;;
39426;SDS011;25938;48.470;1.486;2023-04-29T12:47:10;4.45;;;3.92;;
39426;SDS011;25938;48.470;1.486;2023-04-29T12:49:37;4.72;;;3.33;;
39426;SDS011;25938;48.470;1.486;2023-04-29T12:52:06;4.93;;;3.40;;
39426;SDS011;25938;48.470;1.486;2023-04-29T12:54:34;4.43;;;3.22;;
39426;SDS011;25938;48.470;1.486;2023-04-29T12:57:01;4.65;;;4.10;;
39426;SDS011;25938;48.470;1.486;2023-04-29T12:59:27;5.13;;;4.05;;
39426;SDS011;25938;48.470;1.486;2023-04-29T13:01:53;4.20;;;3.10;;
39426;SDS011;25938;48.470;1.486;2023-04-29T13:04:19;7.32;;;5.25;;
39426;SDS011;25938;48.470;1.486;2023-04-29T13:06:45;5.60;;;4.38;;
39426;SDS011;25938;48.470;1.486;2023-04-29T13:09:11;4.80;;;4.25;;
39426;SDS011;25938;48.470;1.486;2023-04-29T13:11:37;6.78;;;4.22;;
39426;SDS011;25938;48.470;1.486;2023-04-29T13:14:04;6.70;;;4.93;;
39426;SDS011;25938;48.470;1.486;2023-04-29T13:16:34;5.95;;;4.63;;
39426;SDS011;25938;48.470;1.486;2023-04-29T13:19:00;5.18;;;4.05;;
39426;SDS011;25938;48.470;1.486;2023-04-29T13:21:26;7.18;;;4.40;;
39426;SDS011;25938;48.470;1.486;2023-04-29T13:23:53;5.78;;;4.55;;
39426;SDS011;25938;48.470;1.486;2023-04-29T13:26:19;7.38;;;5.15;;
39426;SDS011;25938;48.470;1.486;2023-04-29T13:28:45;6.55;;;5.10;;
39426;SDS011;25938;48.470;1.486;2023-04-29T13:31:11;9.07;;;5.18;;
39426;SDS011;25938;48.470;1.486;2023-04-29T13:33:37;6.40;;;4.70;;
39426;SDS011;25938;48.470;1.486;2023-04-29T13:36:03;8.98;;;4.63;;
39426;SDS011;25938;48.470;1.486;2023-04-29T13:38:29;7.97;;;4.82;;
39426;SDS011;25938;48.470;1.486;2023-04-29T13:40:56;6.82;;;4.18;;
39426;SDS011;25938;48.470;1.486;2023-04-29T13:43:22;5.63;;;4.32;;
39426;SDS011;25938;48.470;1.486;2023-04-29T13:45:48;4.97;;;2.92;;
39426;SDS011;25938;48.470;1.486;2023-04-29T13:48:15;5.50;;;4.38;;
39426;SDS011;25938;48.470;1.486;2023-04-29T13:50:41;6.78;;;4.18;;
39426;SDS011;25938;48.470;1.486;2023-04-29T13:53:09;4.00;;;3.42;;
39426;SDS011;25938;48.470;1.486;2023-04-29T13:55:35;5.40;;;4.15;;
39426;SDS011;25938;48.470;1.486;2023-04-29T13:58:01;5.03;;;3.60;;
39426;SDS011;25938;48.470;1.486;2023-04-29T14:00:27;4.93;;;3.38;;
39426;SDS011;25938;48.470;1.486;2023-04-29T14:02:53;6.15;;;4.10;;
39426;SDS011;25938;48.470;1.486;2023-04-29T14:05:19;4.60;;;3.53;;
39426;SDS011;25938;48.470;1.486;2023-04-29T14:07:46;6.53;;;3.65;;
39426;SDS011;25938;48.470;1.486;2023-04-29T14:10:12;3.50;;;3.20;;
39426;SDS011;25938;48.470;1.486;2023-04-29T14:12:38;4.50;;;3.50;;
39426;SDS011;25938;48.470;1.486;2023-04-29T14:15:04;3.80;;;3.05;;
39426;SDS011;25938;48.470;1.486;2023-04-29T14:17:30;4.07;;;2.90;;
39426;SDS011;25938;48.470;1.486;2023-04-29T14:19:57;4.63;;;3.70;;
39426;SDS011;25938;48.470;1.486;2023-04-29T14:22:23;7.07;;;3.83;;
39426;SDS011;25938;48.470;1.486;2023-04-29T14:24:49;5.03;;;3.75;;
39426;SDS011;25938;48.470;1.486;2023-04-29T14:27:15;4.97;;;4.10;;
39426;SDS011;25938;48.470;1.486;2023-04-29T14:29:41;6.55;;;2.45;;
39426;SDS011;25938;48.470;1.486;2023-04-29T14:32:07;5.53;;;2.85;;
39426;SDS011;25938;48.470;1.486;2023-04-29T14:34:33;5.22;;;2.42;;
39426;SDS011;25938;48.470;1.486;2023-04-29T14:36:59;4.78;;;3.33;;
39426;SDS011;25938;48.470;1.486;2023-04-29T14:39:25;6.38;;;3.50;;
39426;SDS011;25938;48.470;1.486;2023-04-29T14:41:51;3.45;;;2.63;;
39426;SDS011;25938;48.470;1.486;2023-04-29T14:44:17;4.68;;;2.47;;
39426;SDS011;25938;48.470;1.486;2023-04-29T14:46:43;4.97;;;1.92;;
39426;SDS011;25938;48.470;1.486;2023-04-29T14:49:09;6.55;;;2.50;;
39426;SDS011;25938;48.470;1.486;2023-04-29T14:51:35;4.82;;;2.50;;
39426;SDS011;25938;48.470;1.486;2023-04-29T14:54:01;3.88;;;1.98;;
39426;SDS011;25938;48.470;1.486;2023-04-29T14:56:27;3.03;;;1.92;;
39426;SDS011;25938;48.470;1.486;2023-04-29T14:58:53;4.55;;;2.03;;
39426;SDS011;25938;48.470;1.486;2023-04-29T15:01:19;3.15;;;2.00;;
39426;SDS011;25938;48.470;1.486;2023-04-29T15:03:45;2.53;;;2.20;;
39426;SDS011;25938;48.470;1.486;2023-04-29T15:06:11;3.83;;;2.30;;
39426;SDS011;25938;48.470;1.486;2023-04-29T15:08:38;5.68;;;1.92;;
39426;SDS011;25938;48.470;1.486;2023-04-29T15:11:04;4.38;;;2.35;;
39426;SDS011;25938;48.470;1.486;2023-04-29T15:13:30;2.92;;;1.38;;